createdAt,value
2016-06-04T00:00:17.964Z,1005.38
2016-06-04T00:01:17.950Z,1005.41
2016-06-04T00:02:17.938Z,1005.35
2016-06-04T00:03:17.924Z,1005.36
2016-06-04T00:04:17.912Z,1005.31
2016-06-04T00:05:17.914Z,1005.41
2016-06-04T00:06:17.902Z,1005.37
2016-06-04T00:07:17.889Z,1005.38
2016-06-04T00:08:17.876Z,1005.41
2016-06-04T00:09:17.863Z,1005.41
2016-06-04T00:10:17.850Z,1005.41
2016-06-04T00:11:18.087Z,1005.43
2016-06-04T00:12:17.823Z,1005.43
2016-06-04T00:13:17.827Z,1005.42
2016-06-04T00:14:17.813Z,1005.39
2016-06-04T00:15:17.801Z,1005.42
2016-06-04T00:16:17.787Z,1005.45
2016-06-04T00:17:17.790Z,1005.46
2016-06-04T00:18:17.778Z,1005.41
2016-06-04T00:19:17.764Z,1005.42
2016-06-04T00:20:17.752Z,1005.43
2016-06-04T00:21:17.739Z,1005.42
2016-06-04T00:22:17.726Z,1005.42
2016-06-04T00:23:17.712Z,1005.38
2016-06-04T00:24:17.715Z,1005.4
2016-06-04T00:25:17.703Z,1005.41
2016-06-04T00:26:17.690Z,1005.42
2016-06-04T00:27:17.677Z,1005.39
2016-06-04T00:28:17.663Z,1005.33
2016-06-04T00:29:17.651Z,1005.36
2016-06-04T00:30:17.638Z,1005.37
2016-06-04T00:31:17.641Z,1005.37
2016-06-04T00:32:17.627Z,1005.39
2016-06-04T00:33:17.614Z,1005.4
2016-06-04T00:34:17.602Z,1005.38
2016-06-04T00:35:17.605Z,1005.38
2016-06-04T00:36:17.576Z,1005.37
2016-06-04T00:37:17.563Z,1005.38
2016-06-04T00:38:17.566Z,1005.35
2016-06-04T00:39:17.553Z,1005.36
2016-06-04T00:40:17.540Z,1005.33
2016-06-04T00:41:17.949Z,1005.35
2016-06-04T00:42:17.514Z,1005.29
2016-06-04T00:43:17.501Z,1005.33
2016-06-04T00:44:17.504Z,1005.33
2016-06-04T00:45:17.475Z,1005.34
2016-06-04T00:46:17.463Z,1005.32
2016-06-04T00:47:17.465Z,1005.31
2016-06-04T00:48:17.452Z,1005.33
2016-06-04T00:49:17.439Z,1005.31
2016-06-04T00:50:17.426Z,1005.34
2016-06-04T00:51:17.413Z,1005.34
2016-06-04T00:52:17.400Z,1005.32
2016-06-04T00:53:17.388Z,1005.34
2016-06-04T00:54:17.437Z,1005.33
2016-06-04T00:55:17.377Z,1005.28
2016-06-04T00:56:17.364Z,1005.3
2016-06-04T00:57:17.351Z,1005.3
2016-06-04T00:58:17.339Z,1005.28
2016-06-04T00:59:17.337Z,1005.28
2016-06-04T01:00:17.358Z,1005.28
2016-06-04T01:01:17.393Z,1005.32
2016-06-04T01:02:17.415Z,1005.32
2016-06-04T01:03:17.435Z,1005.31
2016-06-04T01:04:17.463Z,1005.3
2016-06-04T01:05:17.447Z,1005.32
2016-06-04T01:06:17.462Z,1005.28
2016-06-04T01:07:17.445Z,1005.27
2016-06-04T01:08:17.444Z,1005.29
2016-06-04T01:09:17.455Z,1005.3
2016-06-04T01:10:17.446Z,1005.28
2016-06-04T01:11:17.438Z,1005.29
2016-06-04T01:12:17.429Z,1005.27
2016-06-04T01:13:17.421Z,1005.27
2016-06-04T01:14:17.427Z,1005.23
2016-06-04T01:15:17.415Z,1005.26
2016-06-04T01:16:17.403Z,1005.25
2016-06-04T01:17:17.392Z,1005.22
2016-06-04T01:18:17.381Z,1005.25
2016-06-04T01:19:17.368Z,1005.21
2016-06-04T01:20:17.371Z,1005.24
2016-06-04T01:21:17.344Z,1005.24
2016-06-04T01:22:17.347Z,1005.22
2016-06-04T01:23:17.335Z,1005.24
2016-06-04T01:24:17.322Z,1005.21
2016-06-04T01:25:17.309Z,1005.23
2016-06-04T01:26:17.297Z,1005.23
2016-06-04T01:27:17.284Z,1005.27
2016-06-04T01:28:17.271Z,1005.2
2016-06-04T01:29:17.259Z,1005.23
2016-06-04T01:30:17.246Z,1005.23
2016-06-04T01:31:17.234Z,1005.23
2016-06-04T01:32:17.236Z,1005.24
2016-06-04T01:33:17.223Z,1005.24
2016-06-04T01:34:17.209Z,1005.23
2016-06-04T01:35:17.198Z,1005.24
2016-06-04T01:36:17.184Z,1005.23
2016-06-04T01:37:17.171Z,1005.22
2016-06-04T01:38:17.159Z,1005.21
2016-06-04T01:39:17.161Z,1005.2
2016-06-04T01:40:17.133Z,1005.21
2016-06-04T01:41:17.120Z,1005.21
2016-06-04T01:42:17.122Z,1005.2
2016-06-04T01:43:17.109Z,1005.2
2016-06-04T01:44:17.097Z,1005.21
2016-06-04T01:45:17.083Z,1005.21
2016-06-04T01:46:17.070Z,1005.17
2016-06-04T01:47:17.058Z,1005.18
2016-06-04T01:48:17.061Z,1005.17
2016-06-04T01:49:17.047Z,1005.18
2016-06-04T01:50:17.035Z,1005.16
2016-06-04T01:51:17.021Z,1005.19
2016-06-04T01:52:17.008Z,1005.17
2016-06-04T01:53:16.996Z,1005.19
2016-06-04T01:54:16.982Z,1005.17
2016-06-04T01:55:16.969Z,1005.18
2016-06-04T01:56:16.957Z,1005.2
2016-06-04T01:57:16.960Z,1005.15
2016-06-04T01:58:16.947Z,1005.2
2016-06-04T01:59:16.934Z,1005.2
2016-06-04T02:00:16.920Z,1005.21
2016-06-04T02:01:16.908Z,1005.22
2016-06-04T02:02:16.895Z,1005.18
2016-06-04T02:03:16.881Z,1005.18
2016-06-04T02:04:16.869Z,1005.2
2016-06-04T02:05:16.856Z,1005.18
2016-06-04T02:06:16.842Z,1005.17
2016-06-04T02:07:16.846Z,1005.2
2016-06-04T02:08:16.833Z,1005.19
2016-06-04T02:09:16.819Z,1005.16
2016-06-04T02:10:16.823Z,1005.16
2016-06-04T02:11:16.810Z,1005.14
2016-06-04T02:12:16.780Z,1005.15
2016-06-04T02:13:16.768Z,1005.16
2016-06-04T02:14:16.755Z,1005.21
2016-06-04T02:15:16.742Z,1005.21
2016-06-04T02:16:16.744Z,1005.21
2016-06-04T02:17:16.732Z,1005.22
2016-06-04T02:18:16.719Z,1005.22
2016-06-04T02:19:16.706Z,1005.18
2016-06-04T02:20:16.693Z,1005.22
2016-06-04T02:21:16.680Z,1005.2
2016-06-04T02:22:16.667Z,1005.21
2016-06-04T02:23:16.670Z,1005.19
2016-06-04T02:24:16.642Z,1005.2
2016-06-04T02:25:16.644Z,1005.2
2016-06-04T02:26:16.631Z,1005.24
2016-06-04T02:27:16.618Z,1005.23
2016-06-04T02:28:16.605Z,1005.25
2016-06-04T02:29:16.592Z,1005.26
2016-06-04T02:30:16.579Z,1005.25
2016-06-04T02:31:16.566Z,1005.26
2016-06-04T02:32:16.554Z,1005.28
2016-06-04T02:33:16.540Z,1005.3
2016-06-04T02:34:16.528Z,1005.3
2016-06-04T02:35:16.531Z,1005.27
2016-06-04T02:36:16.518Z,1005.28
2016-06-04T02:37:16.504Z,1005.28
2016-06-04T02:38:16.491Z,1005.31
2016-06-04T02:39:16.479Z,1005.27
2016-06-04T02:40:16.481Z,1005.3
2016-06-04T02:41:16.468Z,1005.27
2016-06-04T02:42:16.440Z,1005.29
2016-06-04T02:43:16.442Z,1005.29
2016-06-04T02:44:16.445Z,1005.3
2016-06-04T02:45:16.401Z,1005.3
2016-06-04T02:46:16.403Z,1005.33
2016-06-04T02:47:16.391Z,1005.34
2016-06-04T02:48:16.377Z,1005.31
2016-06-04T02:49:16.364Z,1005.31
2016-06-04T02:50:16.352Z,1005.3
2016-06-04T02:51:16.339Z,1005.32
2016-06-04T02:52:16.388Z,1005.35
2016-06-04T02:53:16.313Z,1005.37
2016-06-04T02:54:16.316Z,1005.39
2016-06-04T02:55:16.288Z,1005.37
2016-06-04T02:56:16.274Z,1005.36
2016-06-04T02:57:16.277Z,1005.39
2016-06-04T02:58:16.263Z,1005.39
2016-06-04T02:59:16.251Z,1005.38
2016-06-04T03:00:16.238Z,1005.37
2016-06-04T03:01:16.226Z,1005.38
2016-06-04T03:02:16.212Z,1005.4
2016-06-04T03:03:16.199Z,1005.43
2016-06-04T03:04:16.202Z,1005.44
2016-06-04T03:05:16.205Z,1005.45
2016-06-04T03:06:16.176Z,1005.45
2016-06-04T03:07:16.163Z,1005.46
2016-06-04T03:08:16.151Z,1005.47
2016-06-04T03:09:16.137Z,1005.45
2016-06-04T03:10:16.125Z,1005.45
2016-06-04T03:11:16.580Z,1005.49
2016-06-04T03:12:16.098Z,1005.47
2016-06-04T03:13:16.086Z,1005.5
2016-06-04T03:14:16.073Z,1005.5
2016-06-04T03:15:16.059Z,1005.54
2016-06-04T03:16:16.047Z,1005.53
2016-06-04T03:17:16.050Z,1005.54
2016-06-04T03:18:16.036Z,1005.57
2016-06-04T03:19:16.025Z,1005.55
2016-06-04T03:20:16.011Z,1005.56
2016-06-04T03:21:15.997Z,1005.53
2016-06-04T03:22:15.986Z,1005.54
2016-06-04T03:23:15.972Z,1005.55
2016-06-04T03:24:15.959Z,1005.56
2016-06-04T03:25:15.961Z,1005.54
2016-06-04T03:26:15.933Z,1005.52
2016-06-04T03:27:15.921Z,1005.53
2016-06-04T03:28:15.908Z,1005.55
2016-06-04T03:29:15.910Z,1005.53
2016-06-04T03:30:15.897Z,1005.52
2016-06-04T03:31:15.885Z,1005.53
2016-06-04T03:32:15.872Z,1005.53
2016-06-04T03:33:15.857Z,1005.53
2016-06-04T03:34:15.846Z,1005.54
2016-06-04T03:35:15.832Z,1005.53
2016-06-04T03:36:15.820Z,1005.51
2016-06-04T03:37:15.806Z,1005.54
2016-06-04T03:38:15.793Z,1005.52
2016-06-04T03:39:15.781Z,1005.55
2016-06-04T03:40:15.768Z,1005.55
2016-06-04T03:41:15.770Z,1005.57
2016-06-04T03:42:15.742Z,1005.57
2016-06-04T03:43:15.744Z,1005.57
2016-06-04T03:44:15.731Z,1005.59
2016-06-04T03:45:15.781Z,1005.56
2016-06-04T03:46:15.722Z,1005.56
2016-06-04T03:47:15.709Z,1005.57
2016-06-04T03:48:15.695Z,1005.57
2016-06-04T03:49:15.667Z,1005.61
2016-06-04T03:50:15.653Z,1005.6
2016-06-04T03:51:15.703Z,1005.63
2016-06-04T03:52:15.627Z,1005.63
2016-06-04T03:53:15.616Z,1005.66
2016-06-04T03:54:15.618Z,1005.62
2016-06-04T03:55:15.605Z,1005.63
2016-06-04T03:56:15.591Z,1005.63
2016-06-04T03:57:15.579Z,1005.61
2016-06-04T03:58:15.566Z,1005.6
2016-06-04T03:59:15.553Z,1005.62
2016-06-04T04:00:15.540Z,1005.64
2016-06-04T04:01:15.527Z,1005.61
2016-06-04T04:02:15.515Z,1005.61
2016-06-04T04:03:15.502Z,1005.63
2016-06-04T04:04:15.488Z,1005.63
2016-06-04T04:05:15.476Z,1005.63
2016-06-04T04:06:15.479Z,1005.66
2016-06-04T04:07:15.465Z,1005.65
2016-06-04T04:08:15.452Z,1005.67
2016-06-04T04:09:15.439Z,1005.7
2016-06-04T04:10:15.426Z,1005.73
2016-06-04T04:11:15.414Z,1005.73
2016-06-04T04:12:15.401Z,1005.74
2016-06-04T04:13:15.387Z,1005.77
2016-06-04T04:14:15.375Z,1005.79
2016-06-04T04:15:15.362Z,1005.73
2016-06-04T04:16:15.348Z,1005.79
2016-06-04T04:17:15.367Z,1005.79
2016-06-04T04:18:15.339Z,1005.79
2016-06-04T04:19:15.325Z,1005.79
2016-06-04T04:20:15.313Z,1005.78
2016-06-04T04:21:15.300Z,1005.74
2016-06-04T04:22:15.287Z,1005.75
2016-06-04T04:23:15.274Z,1005.76
2016-06-04T04:24:15.277Z,1005.75
2016-06-04T04:25:15.248Z,1005.78
2016-06-04T04:26:15.251Z,1005.74
2016-06-04T04:27:15.222Z,1005.75
2016-06-04T04:28:15.225Z,1005.73
2016-06-04T04:29:15.197Z,1005.77
2016-06-04T04:30:15.199Z,1005.73
2016-06-04T04:31:15.185Z,1005.73
2016-06-04T04:32:15.173Z,1005.71
2016-06-04T04:33:15.176Z,1005.74
2016-06-04T04:34:15.147Z,1005.73
2016-06-04T04:35:15.149Z,1005.74
2016-06-04T04:36:15.121Z,1005.73
2016-06-04T04:37:15.124Z,1005.78
2016-06-04T04:38:15.111Z,1005.77
2016-06-04T04:39:15.099Z,1005.77
2016-06-04T04:40:15.085Z,1005.79
2016-06-04T04:41:15.088Z,1005.76
2016-06-04T04:42:15.059Z,1005.79
2016-06-04T04:43:15.062Z,1005.76
2016-06-04T04:44:15.034Z,1005.77
2016-06-04T04:45:15.037Z,1005.79
2016-06-04T04:46:15.008Z,1005.8
2016-06-04T04:47:15.011Z,1005.78
2016-06-04T04:48:14.997Z,1005.79
2016-06-04T04:49:14.984Z,1005.74
2016-06-04T04:50:14.972Z,1005.79
2016-06-04T04:51:14.975Z,1005.78
2016-06-04T04:52:14.945Z,1005.78
2016-06-04T04:53:14.933Z,1005.77
2016-06-04T04:54:14.936Z,1005.77
2016-06-04T04:55:14.923Z,1005.78
2016-06-04T04:56:14.910Z,1005.75
2016-06-04T04:57:14.896Z,1005.73
2016-06-04T04:58:14.884Z,1005.75
2016-06-04T04:59:14.871Z,1005.74
2016-06-04T05:00:14.857Z,1005.75
2016-06-04T05:01:14.844Z,1005.76
2016-06-04T05:02:14.832Z,1005.74
2016-06-04T05:03:14.835Z,1005.75
2016-06-04T05:04:14.822Z,1005.77
2016-06-04T05:05:14.809Z,1005.77
2016-06-04T05:06:14.796Z,1005.76
2016-06-04T05:07:14.783Z,1005.77
2016-06-04T05:08:14.770Z,1005.76
2016-06-04T05:09:14.757Z,1005.77
2016-06-04T05:10:14.760Z,1005.75
2016-06-04T05:11:14.746Z,1005.74
2016-06-04T05:12:14.718Z,1005.76
2016-06-04T05:13:14.721Z,1005.77
2016-06-04T05:14:14.709Z,1005.76
2016-06-04T05:15:14.695Z,1005.76
2016-06-04T05:16:14.681Z,1005.78
2016-06-04T05:17:14.670Z,1005.75
2016-06-04T05:18:14.672Z,1005.76
2016-06-04T05:19:14.659Z,1005.79
2016-06-04T05:20:14.646Z,1005.77
2016-06-04T05:21:14.634Z,1005.77
2016-06-04T05:22:14.620Z,1005.79
2016-06-04T05:23:14.607Z,1005.78
2016-06-04T05:24:14.611Z,1005.74
2016-06-04T05:25:14.613Z,1005.76
2016-06-04T05:26:14.584Z,1005.79
2016-06-04T05:27:14.571Z,1005.76
2016-06-04T05:28:14.558Z,1005.77
2016-06-04T05:29:14.545Z,1005.78
2016-06-04T05:30:14.563Z,1005.8
2016-06-04T05:31:14.550Z,1005.82
2016-06-04T05:32:14.522Z,1005.83
2016-06-04T05:33:14.510Z,1005.83
2016-06-04T05:34:14.496Z,1005.85
2016-06-04T05:35:14.499Z,1005.84
2016-06-04T05:36:14.470Z,1005.86
2016-06-04T05:37:14.474Z,1005.84
2016-06-04T05:38:14.460Z,1005.86
2016-06-04T05:39:14.463Z,1005.86
2016-06-04T05:40:14.435Z,1005.86
2016-06-04T05:41:14.421Z,1005.88
2016-06-04T05:42:14.409Z,1005.88
2016-06-04T05:43:14.395Z,1005.91
2016-06-04T05:44:14.382Z,1005.87
2016-06-04T05:45:14.385Z,1005.93
2016-06-04T05:46:14.372Z,1005.93
2016-06-04T05:47:14.406Z,1005.91
2016-06-04T05:48:14.346Z,1005.93
2016-06-04T05:49:14.349Z,1005.92
2016-06-04T05:50:14.336Z,1005.9
2016-06-04T05:51:14.370Z,1005.87
2016-06-04T05:52:14.311Z,1005.89
2016-06-04T05:53:14.297Z,1005.9
2016-06-04T05:54:14.300Z,1005.93
2016-06-04T05:55:14.287Z,1005.93
2016-06-04T05:56:14.274Z,1005.94
2016-06-04T05:57:14.261Z,1005.94
2016-06-04T05:58:14.280Z,1005.95
2016-06-04T05:59:14.236Z,1005.97
2016-06-04T06:00:14.222Z,1005.98
2016-06-04T06:01:14.225Z,1005.98
2016-06-04T06:02:14.212Z,1006.03
2016-06-04T06:03:14.216Z,1006.01
2016-06-04T06:04:14.186Z,1006.03
2016-06-04T06:05:14.189Z,1005.98
2016-06-04T06:06:14.176Z,1006.01
2016-06-04T06:07:14.163Z,1006.02
2016-06-04T06:08:14.149Z,1006.05
2016-06-04T06:09:14.152Z,1006.05
2016-06-04T06:10:14.140Z,1006.08
2016-06-04T06:11:14.143Z,1006.1
2016-06-04T06:12:14.114Z,1006.06
2016-06-04T06:13:14.101Z,1006.09
2016-06-04T06:14:14.088Z,1006.12
2016-06-04T06:15:14.076Z,1006.09
2016-06-04T06:16:14.078Z,1006.09
2016-06-04T06:17:14.065Z,1006.09
2016-06-04T06:18:14.052Z,1006.09
2016-06-04T06:19:14.054Z,1006.07
2016-06-04T06:20:14.057Z,1006.07
2016-06-04T06:21:14.029Z,1006.07
2016-06-04T06:22:14.016Z,1006.07
2016-06-04T06:23:14.019Z,1006.06
2016-06-04T06:24:14.005Z,1006.08
2016-06-04T06:25:13.992Z,1006.06
2016-06-04T06:26:13.981Z,1006.06
2016-06-04T06:27:13.983Z,1006.06
2016-06-04T06:28:13.969Z,1006.06
2016-06-04T06:29:13.956Z,1006.1
2016-06-04T06:30:13.944Z,1006.09
2016-06-04T06:31:13.930Z,1006.05
2016-06-04T06:32:13.933Z,1006.08
2016-06-04T06:33:13.936Z,1006.05
2016-06-04T06:34:13.924Z,1006.08
2016-06-04T06:35:13.894Z,1006.09
2016-06-04T06:36:13.897Z,1006.06
2016-06-04T06:37:13.885Z,1006.09
2016-06-04T06:38:13.887Z,1006.09
2016-06-04T06:39:13.874Z,1006.11
2016-06-04T06:40:13.877Z,1006.15
2016-06-04T06:41:13.863Z,1006.11
2016-06-04T06:42:13.851Z,1006.14
2016-06-04T06:43:13.823Z,1006.16
2016-06-04T06:44:13.825Z,1006.15
2016-06-04T06:45:13.812Z,1006.12
2016-06-04T06:46:13.799Z,1006.15
2016-06-04T06:47:13.802Z,1006.17
2016-06-04T06:48:13.789Z,1006.18
2016-06-04T06:49:13.792Z,1006.21
2016-06-04T06:50:13.778Z,1006.23
2016-06-04T06:51:13.766Z,1006.18
2016-06-04T06:52:13.753Z,1006.18
2016-06-04T06:53:13.756Z,1006.14
2016-06-04T06:54:13.742Z,1006.17
2016-06-04T06:55:13.730Z,1006.18
2016-06-04T06:56:13.717Z,1006.19
2016-06-04T06:57:13.719Z,1006.16
2016-06-04T06:58:13.706Z,1006.16
2016-06-04T06:59:13.709Z,1006.15
2016-06-04T07:00:13.681Z,1006.17
2016-06-04T07:01:13.684Z,1006.14
2016-06-04T07:02:13.670Z,1006.2
2016-06-04T07:03:13.673Z,1006.23
2016-06-04T07:04:13.660Z,1006.22
2016-06-04T07:05:13.647Z,1006.21
2016-06-04T07:06:13.635Z,1006.23
2016-06-04T07:07:13.638Z,1006.25
2016-06-04T07:08:13.624Z,1006.25
2016-06-04T07:09:13.626Z,1006.25
2016-06-04T07:10:13.613Z,1006.28
2016-06-04T07:11:13.601Z,1006.24
2016-06-04T07:12:13.587Z,1006.3
2016-06-04T07:13:13.590Z,1006.28
2016-06-04T07:14:13.594Z,1006.28
2016-06-04T07:15:13.565Z,1006.28
2016-06-04T07:16:13.567Z,1006.29
2016-06-04T07:17:13.554Z,1006.3
2016-06-04T07:18:13.542Z,1006.33
2016-06-04T07:19:13.545Z,1006.29
2016-06-04T07:20:13.531Z,1006.3
2016-06-04T07:21:13.534Z,1006.3
2016-06-04T07:22:13.537Z,1006.31
2016-06-04T07:23:13.509Z,1006.32
2016-06-04T07:24:13.511Z,1006.34
2016-06-04T07:25:13.497Z,1006.33
2016-06-04T07:26:13.673Z,1006.34
2016-06-04T07:27:13.487Z,1006.32
2016-06-04T07:28:13.475Z,1006.35
2016-06-04T07:29:13.462Z,1006.36
2016-06-04T07:30:13.464Z,1006.38
2016-06-04T07:31:13.452Z,1006.39
2016-06-04T07:32:13.454Z,1006.39
2016-06-04T07:33:13.441Z,1006.4
2016-06-04T07:34:13.444Z,1006.4
2016-06-04T07:35:13.431Z,1006.38
2016-06-04T07:36:13.418Z,1006.42
2016-06-04T07:37:13.405Z,1006.37
2016-06-04T07:38:13.408Z,1006.41
2016-06-04T07:39:13.395Z,1006.42
2016-06-04T07:40:13.382Z,1006.46
2016-06-04T07:41:14.150Z,1006.45
2016-06-04T07:42:13.372Z,1006.45
2016-06-04T07:43:13.360Z,1006.48
2016-06-04T07:44:13.362Z,1006.47
2016-06-04T07:45:13.348Z,1006.47
2016-06-04T07:46:13.351Z,1006.45
2016-06-04T07:47:13.338Z,1006.48
2016-06-04T07:48:13.341Z,1006.47
2016-06-04T07:49:13.343Z,1006.49
2016-06-04T07:50:13.315Z,1006.5
2016-06-04T07:51:13.318Z,1006.51
2016-06-04T07:52:13.304Z,1006.5
2016-06-04T07:53:13.307Z,1006.46
2016-06-04T07:54:13.294Z,1006.52
2016-06-04T07:55:13.298Z,1006.49
2016-06-04T07:56:13.284Z,1006.5
2016-06-04T07:57:13.272Z,1006.5
2016-06-04T07:58:13.259Z,1006.51
2016-06-04T07:59:13.261Z,1006.51
2016-06-04T08:00:13.248Z,1006.47
2016-06-04T08:01:13.251Z,1006.48
2016-06-04T08:02:13.238Z,1006.49
2016-06-04T08:03:13.241Z,1006.51
2016-06-04T08:04:13.228Z,1006.49
2016-06-04T08:05:13.230Z,1006.49
2016-06-04T08:06:13.217Z,1006.5
2016-06-04T08:07:13.205Z,1006.5
2016-06-04T08:08:13.208Z,1006.49
2016-06-04T08:09:13.194Z,1006.53
2016-06-04T08:10:13.197Z,1006.49
2016-06-04T08:11:13.184Z,1006.51
2016-06-04T08:12:15.593Z,1006.55
2016-06-04T08:13:13.174Z,1006.56
2016-06-04T08:14:13.160Z,1006.52
2016-06-04T08:15:13.164Z,1006.49
2016-06-04T08:16:13.151Z,1006.53
2016-06-04T08:17:13.154Z,1006.52
2016-06-04T08:18:13.140Z,1006.5
2016-06-04T08:19:13.143Z,1006.54
2016-06-04T08:20:13.130Z,1006.52
2016-06-04T08:21:13.132Z,1006.59
2016-06-04T08:22:13.120Z,1006.54
2016-06-04T08:23:13.106Z,1006.52
2016-06-04T08:24:13.110Z,1006.51
2016-06-04T08:25:13.097Z,1006.5
2016-06-04T08:26:13.350Z,1006.5
2016-06-04T08:27:13.087Z,1006.46
2016-06-04T08:28:13.089Z,1006.52
2016-06-04T08:29:13.076Z,1006.5
2016-06-04T08:30:13.063Z,1006.48
2016-06-04T08:31:13.066Z,1006.53
2016-06-04T08:32:13.053Z,1006.52
2016-06-04T08:33:13.039Z,1006.54
2016-06-04T08:34:13.043Z,1006.5
2016-06-04T08:35:13.030Z,1006.51
2016-06-04T08:36:13.032Z,1006.54
2016-06-04T08:37:13.035Z,1006.47
2016-06-04T08:38:13.022Z,1006.49
2016-06-04T08:39:13.024Z,1006.45
2016-06-04T08:40:13.012Z,1006.49
2016-06-04T08:41:12.999Z,1006.43
2016-06-04T08:42:13.251Z,1006.45
2016-06-04T08:43:12.988Z,1006.44
2016-06-04T08:44:12.992Z,1006.42
2016-06-04T08:45:12.963Z,1006.45
2016-06-04T08:46:12.966Z,1006.4
2016-06-04T08:47:12.968Z,1006.44
2016-06-04T08:48:12.955Z,1006.41
2016-06-04T08:49:12.943Z,1006.41
2016-06-04T08:50:12.945Z,1006.4
2016-06-04T08:51:12.932Z,1006.41
2016-06-04T08:52:12.935Z,1006.43
2016-06-04T08:53:12.922Z,1006.45
2016-06-04T08:54:12.925Z,1006.47
2016-06-04T08:55:12.928Z,1006.47
2016-06-04T08:56:12.914Z,1006.47
2016-06-04T08:57:12.901Z,1006.45
2016-06-04T08:58:13.186Z,1006.41
2016-06-04T08:59:12.891Z,1006.43
2016-06-04T09:00:12.878Z,1006.43
2016-06-04T09:01:12.881Z,1006.44
2016-06-04T09:02:12.884Z,1006.45
2016-06-04T09:03:12.870Z,1006.46
2016-06-04T09:04:12.873Z,1006.44
2016-06-04T09:05:12.861Z,1006.48
2016-06-04T09:06:12.848Z,1006.46
2016-06-04T09:07:12.850Z,1006.45
2016-06-04T09:08:12.838Z,1006.47
2016-06-04T09:09:12.841Z,1006.45
2016-06-04T09:10:12.827Z,1006.5
2016-06-04T09:11:12.814Z,1006.45
2016-06-04T09:12:13.380Z,1006.48
2016-06-04T09:13:12.835Z,1006.46
2016-06-04T09:14:12.807Z,1006.47
2016-06-04T09:15:12.793Z,1006.43
2016-06-04T09:16:12.797Z,1006.44
2016-06-04T09:17:12.783Z,1006.46
2016-06-04T09:18:12.785Z,1006.48
2016-06-04T09:19:12.774Z,1006.47
2016-06-04T09:20:12.760Z,1006.45
2016-06-04T09:21:12.763Z,1006.5
2016-06-04T09:22:12.751Z,1006.46
2016-06-04T09:23:12.753Z,1006.43
2016-06-04T09:24:12.740Z,1006.47
2016-06-04T09:25:12.743Z,1006.46
2016-06-04T09:26:12.745Z,1006.48
2016-06-04T09:27:12.732Z,1006.48
2016-06-04T09:28:12.719Z,1006.49
2016-06-04T09:29:13.379Z,1006.49
2016-06-04T09:30:12.709Z,1006.49
2016-06-04T09:31:12.711Z,1006.49
2016-06-04T09:32:12.714Z,1006.47
2016-06-04T09:33:12.702Z,1006.47
2016-06-04T09:34:12.689Z,1006.5
2016-06-04T09:35:12.692Z,1006.52
2016-06-04T09:36:12.694Z,1006.53
2016-06-04T09:37:12.681Z,1006.5
2016-06-04T09:38:12.684Z,1006.49
2016-06-04T09:39:12.671Z,1006.53
2016-06-04T09:40:12.658Z,1006.53
2016-06-04T09:41:12.661Z,1006.49
2016-06-04T09:42:12.648Z,1006.48
2016-06-04T09:43:12.650Z,1006.54
2016-06-04T09:44:12.653Z,1006.52
2016-06-04T09:45:12.655Z,1006.51
2016-06-04T09:46:12.643Z,1006.54
2016-06-04T09:47:12.630Z,1006.5
2016-06-04T09:48:12.632Z,1006.51
2016-06-04T09:49:12.651Z,1006.51
2016-06-04T09:50:12.622Z,1006.52
2016-06-04T09:51:12.625Z,1006.53
2016-06-04T09:52:12.612Z,1006.53
2016-06-04T09:53:12.645Z,1006.5
2016-06-04T09:54:12.602Z,1006.53
2016-06-04T09:55:12.604Z,1006.54
2016-06-04T09:56:12.592Z,1006.56
2016-06-04T09:57:12.594Z,1006.55
2016-06-04T09:58:12.582Z,1006.54
2016-06-04T09:59:12.834Z,1006.53
2016-06-04T10:00:12.571Z,1006.54
2016-06-04T10:01:13.855Z,1006.54
2016-06-04T10:02:12.561Z,1006.57
2016-06-04T10:03:12.564Z,1006.55
2016-06-04T10:04:12.551Z,1006.61
2016-06-04T10:05:12.570Z,1006.61
2016-06-04T10:06:13.210Z,1006.6
2016-06-04T10:07:12.615Z,1006.58
2016-06-04T10:08:12.646Z,1006.56
2016-06-04T10:09:12.661Z,1006.58
2016-06-04T10:10:12.680Z,1006.53
2016-06-04T10:11:12.693Z,1006.56
2016-06-04T10:12:12.690Z,1006.53
2016-06-04T10:13:12.688Z,1006.51
2016-06-04T10:14:12.700Z,1006.54
2016-06-04T10:15:12.709Z,1006.55
2016-06-04T10:16:12.715Z,1006.58
2016-06-04T10:17:12.704Z,1006.51
2016-06-04T10:18:12.710Z,1006.56
2016-06-04T10:19:12.717Z,1006.52
2016-06-04T10:20:12.706Z,1006.53
2016-06-04T10:21:12.726Z,1006.52
2016-06-04T10:22:12.699Z,1006.55
2016-06-04T10:23:12.703Z,1006.51
2016-06-04T10:24:12.692Z,1006.55
2016-06-04T10:25:12.695Z,1006.52
2016-06-04T10:26:12.698Z,1006.53
2016-06-04T10:27:12.686Z,1006.58
2016-06-04T10:28:12.688Z,1006.56
2016-06-04T10:29:12.692Z,1006.57
2016-06-04T10:30:12.679Z,1006.55
2016-06-04T10:31:12.682Z,1006.54
2016-06-04T10:32:12.685Z,1006.47
2016-06-04T10:33:12.687Z,1006.49
2016-06-04T10:34:12.674Z,1006.46
2016-06-04T10:35:12.677Z,1006.52
2016-06-04T10:36:12.679Z,1006.51
2016-06-04T10:37:12.667Z,1006.51
2016-06-04T10:38:12.670Z,1006.57
2016-06-04T10:39:12.673Z,1006.46
2016-06-04T10:40:12.675Z,1006.46
2016-06-04T10:41:12.678Z,1006.57
2016-06-04T10:42:12.649Z,1006.58
2016-06-04T10:43:12.652Z,1006.56
2016-06-04T10:44:12.795Z,1006.57
2016-06-04T10:45:12.642Z,1006.64
2016-06-04T10:46:12.644Z,1006.53
2016-06-04T10:47:12.679Z,1006.61
2016-06-04T10:48:12.634Z,1006.64
2016-06-04T10:49:12.636Z,1006.63
2016-06-04T10:50:12.639Z,1006.63
2016-06-04T10:51:12.626Z,1006.6
2016-06-04T10:52:12.629Z,1006.62
2016-06-04T10:53:12.631Z,1006.58
2016-06-04T10:54:12.619Z,1006.61
2016-06-04T10:55:12.621Z,1006.63
2016-06-04T10:56:12.624Z,1006.63
2016-06-04T10:57:12.908Z,1006.65
2016-06-04T10:58:12.613Z,1006.6
2016-06-04T10:59:12.602Z,1006.64
2016-06-04T11:00:12.588Z,1006.65
2016-06-04T11:01:12.591Z,1006.64
2016-06-04T11:02:12.594Z,1006.67
2016-06-04T11:03:12.581Z,1006.66
2016-06-04T11:04:12.583Z,1006.66
2016-06-04T11:05:12.586Z,1006.65
2016-06-04T11:06:12.573Z,1006.63
2016-06-04T11:07:12.576Z,1006.65
2016-06-04T11:08:12.563Z,1006.7
2016-06-04T11:09:12.565Z,1006.67
2016-06-04T11:10:12.568Z,1006.64
2016-06-04T11:11:12.554Z,1006.56
2016-06-04T11:12:12.558Z,1006.64
2016-06-04T11:13:12.545Z,1006.63
2016-06-04T11:14:12.954Z,1006.65
2016-06-04T11:15:12.535Z,1006.66
2016-06-04T11:16:12.538Z,1006.64
2016-06-04T11:17:12.540Z,1006.67
2016-06-04T11:18:12.528Z,1006.69
2016-06-04T11:19:12.531Z,1006.66
2016-06-04T11:20:12.579Z,1006.65
2016-06-04T11:21:12.536Z,1006.63
2016-06-04T11:22:12.569Z,1006.64
2016-06-04T11:23:12.509Z,1006.61
2016-06-04T11:24:12.512Z,1006.57
2016-06-04T11:25:12.500Z,1006.59
2016-06-04T11:26:12.502Z,1006.61
2016-06-04T11:27:12.489Z,1006.58
2016-06-04T11:28:12.820Z,1006.58
2016-06-04T11:29:12.495Z,1006.58
2016-06-04T11:30:12.481Z,1006.56
2016-06-04T11:31:12.484Z,1006.62
2016-06-04T11:32:12.471Z,1006.64
2016-06-04T11:33:12.474Z,1006.62
2016-06-04T11:34:12.477Z,1006.65
2016-06-04T11:35:12.480Z,1006.58
2016-06-04T11:36:12.466Z,1006.63
2016-06-04T11:37:12.453Z,1006.62
2016-06-04T11:38:12.457Z,1006.59
2016-06-04T11:39:12.459Z,1006.61
2016-06-04T11:40:12.446Z,1006.61
2016-06-04T11:41:12.432Z,1006.57
2016-06-04T11:42:12.435Z,1006.64
2016-06-04T11:43:12.437Z,1006.62
2016-06-04T11:44:12.426Z,1006.66
2016-06-04T11:45:12.428Z,1006.64
2016-06-04T11:46:12.430Z,1006.65
2016-06-04T11:47:12.418Z,1006.68
2016-06-04T11:48:12.421Z,1006.64
2016-06-04T11:49:12.486Z,1006.62
2016-06-04T11:50:12.410Z,1006.62
2016-06-04T11:51:12.429Z,1006.59
2016-06-04T11:52:12.400Z,1006.55
2016-06-04T11:53:12.450Z,1006.54
2016-06-04T11:54:12.390Z,1006.54
2016-06-04T11:55:12.408Z,1006.51
2016-06-04T11:56:12.394Z,1006.48
2016-06-04T11:57:12.383Z,1006.54
2016-06-04T11:58:12.385Z,1006.57
2016-06-04T11:59:12.372Z,1006.49
2016-06-04T12:00:12.375Z,1006.5
2016-06-04T12:01:12.361Z,1006.44
2016-06-04T12:02:12.364Z,1006.48
2016-06-04T12:03:12.366Z,1006.52
2016-06-04T12:04:12.355Z,1006.49
2016-06-04T12:05:12.357Z,1006.5
2016-06-04T12:06:12.344Z,1006.46
2016-06-04T12:07:12.346Z,1006.43